Kindersley Airport, Saskatchewan

Past 24 Hour Conditions

This table is a summary of hourly weather conditions for the past 24 hours. This summary includes the following parameters: temperature, humidity, dew point, wind speed and direction, air pressure, visibility and/or wind chill and humidex.
Date / Time
(CST)
Conditions Temp (°F) Humidity (%) Dew Point (°F) Wind (mph) Pressure (inches) Vis (mi) Humidex
23 September 2014
20:00 Mostly Cloudy 63 67 52 NW 4 29.9 15 *
19:00 Mostly Cloudy 65 62 52 NW 5 29.9 15 *
18:00 Cloudy 69 54 51 NW 10 29.9 15 *
17:00 Mostly Cloudy 71 48 50 NW 16 29.9 15 *
16:00 Mostly Cloudy 76 39 50 NW 15 gust 24 29.8 15 78
15:00 Mostly Cloudy 77 34 47 NW 17 29.8 15 78
14:00 Mostly Cloudy 79   32 47 NNW 13 gust 20 29.8 15 80
13:00 Mostly Cloudy 76 40 51 NW 7 29.8 15 79
12:00 Partly Cloudy 72 46 50 NNW 7 29.8 15 *
11:00 Partly Cloudy 65 59 51 NNW 7 29.8 15 *
10:00 Partly Cloudy 60 67 49 NNW 9 29.8 15 *
9:00 Partly Cloudy 54 81 48 calm 29.8 15 *
8:00 Partly Cloudy 48 92 46 SW 5 29.8 15 *
7:00 Mainly Clear 46   91 44 SSE 6 29.8 15 *
6:00 Partly Cloudy 46   91 44 SSW 6 29.8 15 *
5:00 Mainly Clear 48 89 45 S 7 29.8 15 *
4:00 Mainly Clear 48 91 46 S 5 29.8 15 *
3:00 Mainly Clear 50 87 47 S 6 29.7 15 *
2:00 Partly Cloudy 50 88 47 S 5 29.8 15 *
1:00 Partly Cloudy 54 80 48 SSW 5 29.7 15 *
00:00 Partly Cloudy 53 83 48 S 6 29.8 15 *
22 September 2014
23:00 Mainly Clear 57 73 49 SW 3 29.8 15 *
22:00 Partly Cloudy 63 62 50 SW 4 29.8 15 *
21:00 Partly Cloudy 62 62 49 S 3 29.8 15 *
20:00 Partly Cloudy 69 49 50 calm 29.8 15 *
N/A
Not available
 ↑ 
Highest temperature
 ↓ 
Lowest temperature
*
Value not significant.

If you require additional historical weather information, please visit Climate Data Online.